Time;durP1;ratioP1;P1;durP2;ratioP2;P2;SDS_P1;SDS_P2;PMS_P1;PMS_P2;Temp;Humidity;BMP_temperature;BMP_pressure;BME280_temperature;BME280_humidity;BME280_pressure;Samples;Min_cycle;Max_cycle;Signal;HPM_P1;HPM_P2
2024/01/27 00:00:07;;;;;;;17.75;5.25;;;2.80;99.90;;;;;;5090960;28;20036;-32
2024/01/27 00:02:33;;;;;;;17.10;4.88;;;2.80;99.90;;;;;;5090636;28;20044;-32
2024/01/27 00:04:59;;;;;;;15.05;5.07;;;2.80;99.90;;;;;;5091144;28;20044;-31
2024/01/27 00:07:27;;;;;;;20.27;4.82;;;2.80;99.90;;;;;;5069644;28;20044;-32
2024/01/27 00:09:52;;;;;;;19.13;4.93;;;2.90;99.90;;;;;;5091297;28;20036;-33
2024/01/27 00:12:18;;;;;;;17.83;4.43;;;2.90;99.90;;;;;;5092570;28;20036;-33
2024/01/27 00:14:44;;;;;;;13.98;4.70;;;2.90;99.90;;;;;;5094952;28;20107;-32
2024/01/27 00:17:10;;;;;;;21.67;5.53;;;2.90;99.90;;;;;;5088845;28;20039;-31
2024/01/27 00:19:36;;;;;;;18.30;4.90;;;2.90;99.90;;;;;;5069120;28;20109;-31
2024/01/27 00:22:02;;;;;;;15.82;4.78;;;2.90;99.90;;;;;;5090961;28;20033;-30
2024/01/27 00:24:28;;;;;;;19.42;5.03;;;2.90;99.90;;;;;;5095975;28;20070;-30
2024/01/27 00:26:54;;;;;;;13.75;4.32;;;2.90;99.90;;;;;;5088310;28;20044;-30
2024/01/27 00:29:20;;;;;;;18.00;5.25;;;2.90;99.90;;;;;;5071010;28;20124;-30
2024/01/27 00:31:45;;;;;;;17.67;4.22;;;2.90;99.90;;;;;;5094170;28;20478;-31
2024/01/27 00:34:11;;;;;;;19.77;4.45;;;3.00;99.90;;;;;;5075253;28;20096;-31
2024/01/27 00:36:37;;;;;;;16.48;4.50;;;2.90;99.90;;;;;;5095302;28;20048;-31
2024/01/27 00:39:03;;;;;;;24.15;4.97;;;3.00;99.90;;;;;;5094506;28;20380;-31
2024/01/27 00:41:29;;;;;;;18.30;4.47;;;3.00;99.90;;;;;;5094894;28;20040;-31
2024/01/27 00:43:55;;;;;;;15.70;4.47;;;3.00;99.90;;;;;;5092265;28;20035;-34
2024/01/27 00:46:21;;;;;;;18.55;4.47;;;3.00;99.90;;;;;;5073114;28;20520;-32
2024/01/27 00:48:47;;;;;;;18.75;4.40;;;2.90;99.90;;;;;;5115616;28;20082;-30
2024/01/27 00:51:13;;;;;;;20.40;4.70;;;2.90;99.90;;;;;;5096586;28;20052;-31
2024/01/27 00:53:39;;;;;;;19.92;4.95;;;2.90;99.90;;;;;;5094187;28;20063;-31
2024/01/27 00:56:05;;;;;;;19.40;4.78;;;2.90;99.90;;;;;;5101506;28;20526;-31
2024/01/27 00:58:31;;;;;;;20.70;5.22;;;2.90;99.90;;;;;;5077184;28;20452;-31
2024/01/27 01:00:58;;;;;;;13.10;4.30;;;2.90;99.90;;;;;;5091651;28;20044;-31
2024/01/27 01:03:24;;;;;;;26.88;5.47;;;2.90;99.90;;;;;;5084106;28;20028;-31
2024/01/27 01:05:50;;;;;;;17.48;4.25;;;2.90;99.90;;;;;;5098874;28;20575;-31
2024/01/27 01:08:15;;;;;;;16.13;5.05;;;2.80;99.90;;;;;;5093800;28;20050;-31
2024/01/27 01:10:41;;;;;;;14.55;4.30;;;2.80;99.90;;;;;;5095093;28;20105;-30
2024/01/27 01:13:07;;;;;;;13.57;4.53;;;2.80;99.90;;;;;;5073123;28;20194;-32
2024/01/27 01:15:33;;;;;;;19.27;4.57;;;2.90;99.90;;;;;;5084812;28;20040;-31
2024/01/27 01:17:58;;;;;;;21.33;5.60;;;2.80;99.90;;;;;;5089895;28;20093;-31
2024/01/27 01:20:26;;;;;;;15.85;4.75;;;2.80;99.90;;;;;;5094470;28;20028;-34
2024/01/27 01:22:52;;;;;;;21.27;5.50;;;2.80;99.90;;;;;;5094074;28;20044;-34
2024/01/27 01:25:18;;;;;;;19.77;4.93;;;2.80;99.90;;;;;;5093431;28;20086;-33
2024/01/27 01:27:45;;;;;;;17.10;4.47;;;2.80;99.90;;;;;;5087931;28;20044;-34
2024/01/27 01:30:11;;;;;;;17.55;4.40;;;2.80;99.90;;;;;;5097226;28;20035;-34
2024/01/27 01:32:37;;;;;;;13.23;4.72;;;2.90;99.90;;;;;;5098423;28;20028;-32
2024/01/27 01:35:03;;;;;;;18.90;5.13;;;2.80;99.90;;;;;;5092908;28;20036;-32
2024/01/27 01:37:29;;;;;;;17.17;4.30;;;2.80;99.90;;;;;;5074546;28;20079;-32
2024/01/27 01:39:55;;;;;;;21.23;4.85;;;2.70;99.90;;;;;;5099906;28;20099;-32
2024/01/27 01:42:24;;;;;;;17.50;4.82;;;2.70;99.90;;;;;;5092588;28;20036;-32
2024/01/27 01:44:51;;;;;;;14.10;4.43;;;2.70;99.90;;;;;;5093655;28;20081;-31
2024/01/27 01:47:17;;;;;;;19.65;5.50;;;2.80;99.90;;;;;;5094324;28;20093;-31
2024/01/27 01:49:43;;;;;;;20.60;5.20;;;2.80;99.90;;;;;;5093937;28;20047;-30
2024/01/27 01:52:10;;;;;;;15.27;5.07;;;2.70;99.90;;;;;;5093770;28;20123;-31
2024/01/27 01:54:36;;;;;;;19.02;4.90;;;2.70;99.90;;;;;;5094558;28;20055;-30
2024/01/27 01:57:03;;;;;;;17.15;4.88;;;2.70;99.90;;;;;;5097130;28;20036;-30
2024/01/27 01:59:28;;;;;;;12.88;4.70;;;2.70;99.90;;;;;;5093446;28;20040;-32
2024/01/27 02:01:54;;;;;;;14.85;4.35;;;2.70;99.90;;;;;;5092648;28;20036;-32
2024/01/27 02:04:20;;;;;;;16.85;4.78;;;2.60;99.90;;;;;;5065572;28;20131;-30
2024/01/27 02:06:46;;;;;;;19.60;5.28;;;2.70;99.90;;;;;;5090831;28;20120;-31
2024/01/27 02:09:12;;;;;;;18.17;5.00;;;2.60;99.90;;;;;;5090608;28;20040;-30
2024/01/27 02:11:38;;;;;;;11.23;4.65;;;2.70;99.90;;;;;;5093746;28;20107;-32
2024/01/27 02:14:04;;;;;;;18.17;4.82;;;2.70;99.90;;;;;;5096773;28;20068;-32
2024/01/27 02:16:30;;;;;;;16.83;4.63;;;2.70;99.90;;;;;;5091773;28;20032;-32
2024/01/27 02:18:56;;;;;;;15.90;4.78;;;2.70;99.90;;;;;;5092509;28;20036;-30
2024/01/27 02:21:21;;;;;;;17.33;4.68;;;2.70;99.90;;;;;;5094693;28;20157;-30
2024/01/27 02:23:47;;;;;;;21.52;5.15;;;2.70;99.90;;;;;;5093668;28;20028;-33
2024/01/27 02:26:13;;;;;;;12.82;4.43;;;2.70;99.90;;;;;;5094819;28;20102;-30
2024/01/27 02:28:38;;;;;;;17.38;5.35;;;2.70;99.90;;;;;;5099678;28;20380;-30
2024/01/27 02:31:04;;;;;;;15.25;5.20;;;2.60;99.90;;;;;;5096550;28;20079;-30
2024/01/27 02:33:30;;;;;;;17.42;4.80;;;2.60;99.90;;;;;;5081236;28;20040;-31
2024/01/27 02:35:56;;;;;;;17.65;5.68;;;2.60;99.90;;;;;;5091703;28;20112;-31
2024/01/27 02:38:22;;;;;;;16.95;4.50;;;2.60;99.90;;;;;;5093613;28;20046;-32
2024/01/27 02:40:47;;;;;;;17.42;4.30;;;2.50;99.90;;;;;;5065001;28;20137;-31
2024/01/27 02:43:13;;;;;;;14.45;4.70;;;2.50;99.90;;;;;;5088110;28;20530;-30
2024/01/27 02:45:39;;;;;;;17.05;5.05;;;2.40;99.90;;;;;;5087940;28;20452;-31
2024/01/27 02:48:05;;;;;;;14.45;4.72;;;2.40;99.90;;;;;;5101531;28;20035;-31
2024/01/27 02:50:30;;;;;;;16.52;4.43;;;2.40;99.90;;;;;;5097531;28;20483;-32
2024/01/27 02:52:56;;;;;;;20.98;5.53;;;2.30;99.90;;;;;;5091734;28;20392;-32
2024/01/27 02:55:22;;;;;;;19.00;4.82;;;2.30;99.90;;;;;;5092430;28;20126;-31
2024/01/27 02:57:47;;;;;;;13.13;4.25;;;2.20;99.90;;;;;;5074544;28;20111;-30
2024/01/27 03:00:13;;;;;;;14.32;4.55;;;2.20;99.90;;;;;;5093530;28;20043;-30
2024/01/27 03:02:39;;;;;;;14.57;5.05;;;2.20;99.90;;;;;;5095198;28;20068;-31
2024/01/27 03:05:05;;;;;;;17.45;5.25;;;2.10;99.90;;;;;;5091689;28;20032;-31
2024/01/27 03:07:31;;;;;;;17.85;5.25;;;2.10;99.90;;;;;;5092378;28;20104;-33
2024/01/27 03:09:57;;;;;;;16.15;4.55;;;2.10;99.90;;;;;;5096859;28;20040;-31
2024/01/27 03:12:23;;;;;;;16.38;5.10;;;2.10;99.90;;;;;;5092380;28;20384;-31
2024/01/27 03:14:49;;;;;;;11.65;4.72;;;2.10;99.90;;;;;;5093478;28;20047;-32
2024/01/27 03:17:15;;;;;;;17.05;4.30;;;2.00;99.90;;;;;;5091354;28;20054;-30
2024/01/27 03:19:41;;;;;;;14.05;4.57;;;2.00;99.90;;;;;;5093250;28;20044;-30
2024/01/27 03:22:07;;;;;;;15.65;4.68;;;1.90;99.90;;;;;;5087966;28;20036;-30
2024/01/27 03:24:32;;;;;;;18.13;5.35;;;2.00;99.90;;;;;;5091785;28;20036;-34
2024/01/27 03:26:58;;;;;;;15.23;5.53;;;2.00;99.90;;;;;;5079557;28;20498;-32
2024/01/27 03:29:24;;;;;;;14.85;6.13;;;1.90;99.90;;;;;;5093099;28;20063;-32
2024/01/27 03:31:49;;;;;;;14.13;5.38;;;2.00;99.90;;;;;;5093864;28;20036;-32
2024/01/27 03:34:17;;;;;;;17.55;5.15;;;1.90;99.90;;;;;;5091408;28;20123;-30
2024/01/27 03:36:43;;;;;;;19.48;5.38;;;1.90;99.90;;;;;;5094087;28;20036;-32
2024/01/27 03:39:09;;;;;;;17.30;5.18;;;1.90;99.90;;;;;;5077453;28;20368;-30
2024/01/27 03:41:34;;;;;;;24.35;5.18;;;1.90;99.90;;;;;;5092382;28;20036;-30
2024/01/27 03:44:00;;;;;;;14.88;5.18;;;1.90;99.90;;;;;;5092287;28;20063;-30
2024/01/27 03:46:27;;;;;;;18.63;5.00;;;1.80;99.90;;;;;;5074561;28;20044;-30
2024/01/27 03:48:52;;;;;;;19.63;5.93;;;1.90;99.90;;;;;;5092464;28;20437;-30
2024/01/27 03:51:18;;;;;;;21.02;5.50;;;1.80;99.90;;;;;;5091495;28;20104;-31
2024/01/27 03:53:45;;;;;;;20.70;4.97;;;1.80;99.90;;;;;;5091817;28;20081;-34
2024/01/27 03:56:14;;;;;;;17.83;5.20;;;1.80;99.90;;;;;;5091043;28;20040;-32
2024/01/27 03:58:40;;;;;;;13.57;5.20;;;1.80;99.90;;;;;;5098684;28;20123;-31
2024/01/27 04:01:06;;;;;;;18.85;4.80;;;1.70;99.90;;;;;;5095278;28;20127;-30
2024/01/27 04:03:31;;;;;;;19.67;5.75;;;1.70;99.90;;;;;;5095288;28;20114;-30
2024/01/27 04:05:57;;;;;;;19.05;6.13;;;1.70;99.90;;;;;;5088583;28;20283;-31
2024/01/27 04:08:23;;;;;;;20.20;6.60;;;1.70;99.90;;;;;;5094526;28;20036;-32
2024/01/27 04:10:49;;;;;;;14.93;4.78;;;1.70;99.90;;;;;;5094936;28;20119;-32
2024/01/27 04:13:15;;;;;;;15.55;5.30;;;1.70;99.90;;;;;;5076316;28;20062;-32
2024/01/27 04:15:41;;;;;;;15.45;5.32;;;1.60;99.90;;;;;;5098703;28;20039;-32
2024/01/27 04:18:08;;;;;;;17.48;4.93;;;1.60;99.90;;;;;;5077534;28;20054;-32
2024/01/27 04:20:36;;;;;;;17.45;4.93;;;1.60;99.90;;;;;;5091646;28;20036;-30
2024/01/27 04:23:02;;;;;;;18.73;4.85;;;1.50;99.90;;;;;;5089008;28;20093;-34
2024/01/27 04:25:28;;;;;;;16.58;5.13;;;1.50;99.90;;;;;;5095202;28;20504;-34
2024/01/27 04:27:54;;;;;;;12.88;4.45;;;1.50;99.90;;;;;;5106986;28;20123;-31
2024/01/27 04:30:20;;;;;;;17.45;5.25;;;1.50;99.90;;;;;;5097185;28;20115;-30
2024/01/27 04:32:46;;;;;;;15.27;5.22;;;1.50;99.90;;;;;;5095782;28;20503;-30
2024/01/27 04:35:13;;;;;;;15.80;4.88;;;1.50;99.90;;;;;;5087787;28;20398;-30
2024/01/27 04:37:39;;;;;;;17.35;5.15;;;1.50;99.90;;;;;;5075155;28;20040;-30
2024/01/27 04:40:08;;;;;;;15.18;5.15;;;1.50;99.90;;;;;;5091354;28;20039;-31
2024/01/27 04:42:34;;;;;;;12.55;4.70;;;1.50;99.90;;;;;;5094930;28;20114;-31
2024/01/27 04:45:00;;;;;;;19.38;4.43;;;1.40;99.90;;;;;;5095468;28;20123;-30
2024/01/27 04:47:26;;;;;;;21.58;4.95;;;1.50;99.90;;;;;;5094772;28;20056;-30
2024/01/27 04:49:52;;;;;;;19.45;4.93;;;1.40;99.90;;;;;;5096183;28;20028;-30
2024/01/27 04:52:17;;;;;;;15.98;5.63;;;1.50;99.90;;;;;;5092641;28;20040;-30
2024/01/27 04:54:43;;;;;;;14.13;5.40;;;1.50;99.90;;;;;;5096381;28;20477;-30
2024/01/27 04:57:09;;;;;;;18.88;4.97;;;1.50;99.90;;;;;;5093710;28;20135;-32
2024/01/27 04:59:35;;;;;;;15.40;5.07;;;1.50;99.90;;;;;;5094708;28;20086;-33
2024/01/27 05:02:01;;;;;;;11.52;4.80;;;1.50;99.90;;;;;;5090170;28;20036;-30
2024/01/27 05:04:27;;;;;;;17.65;4.75;;;1.50;99.90;;;;;;5093154;28;20054;-32
2024/01/27 05:06:53;;;;;;;20.25;5.10;;;1.50;99.90;;;;;;5096782;28;20135;-32
2024/01/27 05:09:19;;;;;;;19.45;5.65;;;1.50;99.90;;;;;;5093379;28;20131;-30
2024/01/27 05:11:45;;;;;;;19.90;6.00;;;1.50;99.90;;;;;;5096017;28;20032;-30
2024/01/27 05:14:11;;;;;;;20.60;5.15;;;1.60;99.90;;;;;;5069039;28;20052;-33
2024/01/27 05:16:37;;;;;;;16.98;5.60;;;1.50;99.90;;;;;;5093526;28;20035;-30
2024/01/27 05:19:03;;;;;;;19.08;6.20;;;1.50;99.90;;;;;;5096886;28;20081;-33
2024/01/27 05:21:28;;;;;;;19.08;5.20;;;1.50;99.90;;;;;;5099844;28;20123;-31
2024/01/27 05:23:54;;;;;;;20.17;6.43;;;1.50;99.90;;;;;;5094993;28;20058;-31
2024/01/27 05:26:21;;;;;;;25.92;6.40;;;1.50;99.90;;;;;;5079820;28;20036;-31
2024/01/27 05:28:47;;;;;;;18.95;5.72;;;1.50;99.90;;;;;;5092638;28;20075;-30
2024/01/27 05:31:12;;;;;;;22.25;8.20;;;1.50;99.90;;;;;;5093420;28;20063;-32
2024/01/27 05:33:41;;;;;;;26.98;12.80;;;1.40;99.90;;;;;;5087566;28;20057;-32
2024/01/27 05:36:07;;;;;;;21.10;7.72;;;1.50;99.90;;;;;;5090059;28;20037;-32
2024/01/27 05:38:33;;;;;;;24.15;7.72;;;1.50;99.90;;;;;;5097052;28;20044;-32
2024/01/27 05:41:02;;;;;;;22.10;8.15;;;1.40;99.90;;;;;;5092990;28;20036;-32
2024/01/27 05:43:28;;;;;;;20.25;7.82;;;1.40;99.90;;;;;;5092952;28;20040;-31
2024/01/27 05:45:55;;;;;;;23.00;10.55;;;1.40;99.90;;;;;;5092334;28;20045;-30
2024/01/27 05:48:20;;;;;;;21.58;7.93;;;1.40;99.90;;;;;;5068469;28;20150;-31
2024/01/27 05:50:59;;;;;;;16.95;6.60;;;1.40;99.90;;;;;;5075851;28;20074;-31
2024/01/27 05:53:26;;;;;;;23.92;6.70;;;1.40;99.90;;;;;;5073871;28;20040;-31
2024/01/27 05:55:53;;;;;;;21.58;7.38;;;1.40;99.90;;;;;;5090618;28;20050;-32
2024/01/27 05:58:21;;;;;;;21.98;11.05;;;1.40;99.90;;;;;;5074680;28;20176;-31
2024/01/27 06:00:47;;;;;;;23.45;9.65;;;1.40;99.90;;;;;;5056666;28;20047;-31
2024/01/27 06:03:13;;;;;;;18.33;6.68;;;1.40;99.90;;;;;;5092825;28;20036;-32
2024/01/27 06:05:40;;;;;;;20.17;8.13;;;1.30;99.90;;;;;;5093031;28;20040;-32
2024/01/27 06:08:07;;;;;;;22.23;7.35;;;1.30;99.90;;;;;;5077039;28;20052;-32
2024/01/27 06:10:32;;;;;;;24.85;7.78;;;1.30;99.90;;;;;;5092721;28;20079;-30
2024/01/27 06:12:58;;;;;;;27.55;10.65;;;1.20;99.90;;;;;;5094940;28;20062;-30
2024/01/27 06:15:24;;;;;;;24.80;10.05;;;1.30;99.90;;;;;;5074312;28;20127;-30
2024/01/27 06:17:50;;;;;;;28.27;13.68;;;1.30;99.90;;;;;;5092645;28;20040;-30
2024/01/27 06:20:17;;;;;;;31.95;14.43;;;1.30;99.90;;;;;;5092947;28;20036;-31
2024/01/27 06:22:43;;;;;;;23.23;8.45;;;1.40;99.90;;;;;;5093041;28;20051;-30
2024/01/27 06:25:10;;;;;;;22.65;11.88;;;1.40;99.90;;;;;;5074873;28;20035;-32
2024/01/27 06:27:37;;;;;;;20.50;8.55;;;1.30;99.90;;;;;;5092440;28;20048;-32
2024/01/27 06:30:04;;;;;;;22.13;8.77;;;1.30;99.90;;;;;;5090376;28;20122;-32
2024/01/27 06:32:29;;;;;;;27.05;12.20;;;1.30;99.90;;;;;;5086566;28;20036;-32
2024/01/27 06:34:55;;;;;;;24.15;10.43;;;1.30;99.90;;;;;;5091989;28;20097;-32
2024/01/27 06:37:21;;;;;;;19.33;9.70;;;1.20;99.90;;;;;;5092260;28;20461;-33
2024/01/27 06:39:47;;;;;;;27.73;12.68;;;1.30;99.90;;;;;;5092868;28;20044;-33
2024/01/27 06:42:12;;;;;;;23.80;10.68;;;1.30;99.90;;;;;;5091663;28;20231;-33
2024/01/27 06:44:38;;;;;;;28.17;10.73;;;1.30;99.90;;;;;;5092470;28;20403;-34
2024/01/27 06:47:04;;;;;;;30.25;11.68;;;1.30;99.90;;;;;;5095987;28;20100;-33
2024/01/27 06:49:30;;;;;;;23.45;11.02;;;1.30;99.90;;;;;;5095957;28;20032;-33
2024/01/27 06:51:55;;;;;;;24.90;11.32;;;1.30;99.90;;;;;;5085527;28;20075;-30
2024/01/27 06:54:21;;;;;;;29.58;11.68;;;1.30;99.90;;;;;;5094292;28;20143;-30
2024/01/27 06:56:47;;;;;;;27.52;11.30;;;1.30;99.90;;;;;;5092261;28;20410;-30
2024/01/27 06:59:12;;;;;;;28.80;12.45;;;1.30;99.90;;;;;;5093041;28;20114;-30
2024/01/27 07:01:39;;;;;;;31.10;13.05;;;1.40;99.90;;;;;;5087324;28;20069;-33
2024/01/27 07:04:05;;;;;;;29.48;11.32;;;1.40;99.90;;;;;;5091735;28;20047;-30
2024/01/27 07:06:31;;;;;;;31.83;11.38;;;1.40;99.90;;;;;;5094596;28;20040;-33
2024/01/27 07:08:56;;;;;;;27.73;11.35;;;1.40;99.90;;;;;;5088043;28;20074;-33
2024/01/27 07:11:22;;;;;;;26.55;11.55;;;1.40;99.90;;;;;;5063847;28;20098;-33
2024/01/27 07:13:48;;;;;;;26.17;11.63;;;1.40;99.90;;;;;;5091675;28;20454;-33
2024/01/27 07:16:13;;;;;;;27.40;11.55;;;1.30;99.90;;;;;;5085752;28;20036;-30
2024/01/27 07:18:39;;;;;;;25.48;11.50;;;1.30;99.90;;;;;;5091347;28;20056;-32
2024/01/27 07:21:05;;;;;;;25.27;11.43;;;1.30;99.90;;;;;;5086103;28;20036;-31
2024/01/27 07:23:31;;;;;;;28.05;13.40;;;1.30;99.90;;;;;;5079636;28;20076;-32
2024/01/27 07:26:02;;;;;;;29.80;12.68;;;1.30;99.90;;;;;;5073823;28;20479;-31
2024/01/27 07:28:28;;;;;;;26.33;13.35;;;1.30;99.90;;;;;;5079218;28;20059;-32
2024/01/27 07:30:54;;;;;;;31.13;16.27;;;1.30;99.90;;;;;;5073981;28;20506;-35
2024/01/27 07:33:20;;;;;;;34.38;20.48;;;1.30;99.90;;;;;;5083832;28;20028;-33
2024/01/27 07:35:45;;;;;;;31.42;15.43;;;1.30;99.90;;;;;;5090668;28;20047;-33
2024/01/27 07:38:15;;;;;;;36.05;15.45;;;1.30;99.90;;;;;;5071587;28;20534;-32
2024/01/27 07:40:41;;;;;;;30.88;14.35;;;1.40;99.90;;;;;;5094674;28;20062;-31
2024/01/27 07:43:07;;;;;;;31.77;13.90;;;1.40;99.90;;;;;;5067324;28;20497;-31
2024/01/27 07:45:33;;;;;;;30.73;14.88;;;1.40;99.90;;;;;;5088356;28;20028;-31
2024/01/27 07:47:59;;;;;;;34.20;14.00;;;1.40;99.90;;;;;;5087469;28;20040;-31
2024/01/27 07:50:25;;;;;;;32.72;16.15;;;1.40;99.90;;;;;;5092563;28;20028;-31
2024/01/27 07:52:50;;;;;;;32.83;17.50;;;1.40;99.90;;;;;;5088301;28;20044;-30
2024/01/27 07:55:17;;;;;;;34.63;18.58;;;1.40;99.90;;;;;;5096456;28;20414;-31
2024/01/27 07:57:43;;;;;;;26.45;14.55;;;1.40;99.90;;;;;;5096597;28;20046;-31
2024/01/27 08:00:09;;;;;;;33.22;16.25;;;1.40;99.90;;;;;;5089622;28;20550;-36
2024/01/27 08:02:35;;;;;;;34.67;16.65;;;1.50;99.90;;;;;;5086888;28;20398;-30
2024/01/27 08:05:02;;;;;;;31.40;16.48;;;1.50;99.90;;;;;;5078239;28;20041;-31
2024/01/27 08:07:28;;;;;;;35.67;18.20;;;1.50;99.90;;;;;;5082841;28;20127;-31
2024/01/27 08:09:53;;;;;;;31.55;16.38;;;1.60;99.90;;;;;;5084277;28;20079;-31
2024/01/27 08:12:19;;;;;;;36.17;17.50;;;1.60;99.90;;;;;;5069201;28;20376;-30
2024/01/27 08:14:45;;;;;;;34.05;16.80;;;1.60;99.90;;;;;;5064271;28;20040;-32
2024/01/27 08:17:11;;;;;;;35.22;17.05;;;1.70;99.90;;;;;;5085343;28;20043;-31
2024/01/27 08:19:37;;;;;;;31.75;17.45;;;1.70;99.90;;;;;;5088996;28;20529;-31
2024/01/27 08:22:03;;;;;;;34.00;18.35;;;1.70;99.90;;;;;;5082002;28;20044;-31
2024/01/27 08:24:28;;;;;;;35.85;18.85;;;1.70;99.90;;;;;;5070853;28;20422;-32
2024/01/27 08:26:54;;;;;;;39.55;21.45;;;1.80;99.90;;;;;;5081314;28;20039;-32
2024/01/27 08:29:20;;;;;;;39.75;20.40;;;1.90;99.90;;;;;;5090475;28;20047;-30
2024/01/27 08:31:46;;;;;;;43.30;29.52;;;1.90;99.90;;;;;;5085548;28;20126;-30
2024/01/27 08:34:14;;;;;;;38.40;20.92;;;2.00;99.90;;;;;;5064839;28;20055;-30
2024/01/27 08:36:40;;;;;;;37.63;23.20;;;2.10;99.90;;;;;;5088203;28;20028;-32
2024/01/27 08:39:07;;;;;;;40.75;23.33;;;2.10;99.90;;;;;;5076922;28;20036;-31
2024/01/27 08:41:34;;;;;;;33.33;20.15;;;2.20;99.90;;;;;;5084882;28;20036;-32
2024/01/27 08:44:00;;;;;;;35.88;19.77;;;2.50;99.90;;;;;;5064673;28;20048;-32
2024/01/27 08:46:25;;;;;;;30.20;18.15;;;2.90;99.90;;;;;;5082343;28;20032;-32
2024/01/27 08:48:51;;;;;;;39.42;18.83;;;3.40;99.90;;;;;;5089478;28;20044;-32
2024/01/27 08:51:17;;;;;;;31.33;15.55;;;3.90;99.90;;;;;;5087317;28;20097;-31
2024/01/27 08:53:48;;;;;;;22.83;14.02;;;4.40;99.90;;;;;;5080487;28;20048;-31
2024/01/27 08:56:17;;;;;;;22.00;12.93;;;4.70;99.90;;;;;;5080066;28;20114;-33
2024/01/27 08:58:49;;;;;;;19.30;11.93;;;5.00;99.90;;;;;;5071766;28;20040;-34
2024/01/27 09:01:18;;;;;;;21.20;12.50;;;5.20;99.90;;;;;;5084386;28;20046;-35
2024/01/27 09:03:44;;;;;;;18.10;11.40;;;5.40;99.90;;;;;;5083163;28;20039;-34
2024/01/27 09:06:10;;;;;;;15.35;10.18;;;5.60;99.90;;;;;;5061848;28;20044;-34
2024/01/27 09:08:36;;;;;;;19.20;11.18;;;5.80;99.90;;;;;;5074863;28;20056;-32
2024/01/27 09:11:03;;;;;;;16.70;11.52;;;5.70;99.90;;;;;;5081560;28;20380;-33
2024/01/27 09:13:28;;;;;;;15.85;11.00;;;5.40;99.90;;;;;;5079703;28;20147;-30
2024/01/27 09:15:56;;;;;;;22.67;11.35;;;5.10;99.90;;;;;;5088636;28;20044;-32
2024/01/27 09:18:22;;;;;;;17.17;10.57;;;4.80;99.90;;;;;;5097013;28;20490;-32
2024/01/27 09:20:48;;;;;;;21.80;11.68;;;4.60;99.90;;;;;;5099936;28;20115;-35
2024/01/27 09:23:14;;;;;;;23.25;12.23;;;4.50;99.90;;;;;;5058674;28;20376;-31
2024/01/27 09:25:40;;;;;;;17.95;11.60;;;4.40;99.90;;;;;;5099288;28;20399;-32
2024/01/27 09:28:05;;;;;;;22.92;12.48;;;4.20;99.90;;;;;;5092567;28;20047;-33
2024/01/27 09:30:31;;;;;;;21.35;12.57;;;4.30;99.90;;;;;;5096514;28;20384;-32
2024/01/27 09:32:57;;;;;;;20.42;14.10;;;4.70;99.90;;;;;;5098648;28;20036;-32
2024/01/27 09:35:23;;;;;;;20.90;13.20;;;5.30;99.90;;;;;;5094840;28;20139;-32
2024/01/27 09:37:48;;;;;;;22.73;12.88;;;5.90;99.90;;;;;;5075942;28;20627;-31
2024/01/27 09:40:14;;;;;;;22.90;12.27;;;6.60;99.90;;;;;;5094339;28;20398;-31
2024/01/27 09:42:47;;;;;;;25.70;13.40;;;7.20;99.90;;;;;;5094285;28;20046;-31
2024/01/27 09:45:13;;;;;;;15.27;9.93;;;7.80;99.90;;;;;;5090847;28;20047;-33
2024/01/27 09:47:40;;;;;;;18.77;10.23;;;8.30;99.90;;;;;;5070725;28;20040;-33
2024/01/27 09:50:08;;;;;;;22.30;11.00;;;8.70;99.90;;;;;;5098379;28;20036;-33
2024/01/27 09:52:34;;;;;;;21.05;11.00;;;9.00;99.90;;;;;;5093772;28;20073;-33
2024/01/27 09:55:00;;;;;;;15.75;10.20;;;9.10;99.90;;;;;;5093125;28;20052;-32
2024/01/27 09:57:27;;;;;;;20.08;9.95;;;9.20;99.90;;;;;;5092873;28;20051;-32
2024/01/27 09:59:53;;;;;;;17.15;10.82;;;9.40;99.90;;;;;;5093114;28;20406;-33
2024/01/27 10:02:19;;;;;;;17.23;9.77;;;9.80;99.90;;;;;;5078187;28;20082;-33
2024/01/27 10:04:48;;;;;;;19.33;10.38;;;10.20;99.90;;;;;;5099235;28;20044;-34
2024/01/27 10:07:14;;;;;;;17.10;9.07;;;10.40;99.90;;;;;;5091032;28;20621;-34
2024/01/27 10:09:41;;;;;;;17.63;9.98;;;10.80;99.90;;;;;;5090170;28;20146;-35
2024/01/27 10:12:09;;;;;;;14.95;9.45;;;10.60;99.90;;;;;;5100250;28;20147;-32
2024/01/27 10:14:41;;;;;;;16.38;9.52;;;10.50;99.90;;;;;;5102032;28;20437;-33
2024/01/27 10:17:21;;;;;;;18.45;10.68;;;10.60;99.90;;;;;;5080624;28;20390;-32
2024/01/27 10:19:47;;;;;;;18.48;9.50;;;11.00;99.90;;;;;;5097570;28;20483;-32
2024/01/27 10:22:13;;;;;;;15.30;9.20;;;11.20;99.90;;;;;;5087500;28;20050;-32
2024/01/27 10:24:38;;;;;;;18.65;9.88;;;11.60;99.90;;;;;;5073473;28;20074;-32
2024/01/27 10:27:05;;;;;;;13.10;8.50;;;11.90;99.90;;;;;;5092974;28;20430;-32
2024/01/27 10:29:31;;;;;;;16.25;8.82;;;12.20;99.90;;;;;;5090834;28;20493;-32
2024/01/27 10:32:08;;;;;;;17.30;9.45;;;12.40;99.90;;;;;;5095849;28;20486;-32
2024/01/27 10:34:34;;;;;;;12.40;8.23;;;12.30;99.90;;;;;;5087071;28;20032;-32
2024/01/27 10:37:00;;;;;;;16.55;8.13;;;12.30;99.90;;;;;;5090714;28;20027;-32
2024/01/27 10:39:28;;;;;;;12.95;8.32;;;12.60;99.90;;;;;;5067362;28;20071;-32
2024/01/27 10:41:53;;;;;;;15.25;8.60;;;13.00;99.90;;;;;;5093358;28;20076;-32
2024/01/27 10:44:20;;;;;;;14.88;7.82;;;13.00;99.90;;;;;;5092653;28;20472;-32
2024/01/27 10:46:48;;;;;;;19.90;8.27;;;12.70;99.90;;;;;;5092770;28;20040;-32
2024/01/27 10:49:15;;;;;;;16.83;8.60;;;12.90;99.90;;;;;;5084287;28;20035;-34
2024/01/27 10:51:53;;;;;;;17.35;8.23;;;13.10;99.90;;;;;;5092174;28;20478;-34
2024/01/27 10:54:24;;;;;;;18.52;8.13;;;13.20;99.90;;;;;;5091234;28;20055;-34
2024/01/27 10:56:53;;;;;;;15.50;8.15;;;13.30;99.90;;;;;;5091981;28;20032;-33
2024/01/27 10:59:21;;;;;;;15.60;8.20;;;13.30;99.90;;;;;;5091485;28;20032;-33
2024/01/27 11:01:51;;;;;;;15.82;7.22;;;12.90;99.90;;;;;;5092315;28;20028;-34
2024/01/27 11:04:18;;;;;;;11.80;6.85;;;13.10;99.90;;;;;;5074024;28;20044;-33
2024/01/27 11:06:45;;;;;;;13.68;8.45;;;13.50;99.90;;;;;;5095601;28;20062;-33
2024/01/27 11:09:12;;;;;;;15.68;7.93;;;13.80;99.90;;;;;;5091835;28;20522;-33
2024/01/27 11:11:39;;;;;;;14.77;6.68;;;14.30;99.90;;;;;;5085788;28;20029;-35
2024/01/27 11:14:06;;;;;;;15.15;6.82;;;14.80;99.90;;;;;;5104870;28;20044;-33
2024/01/27 11:16:31;;;;;;;14.32;6.32;;;15.00;99.90;;;;;;5107415;28;20048;-32
2024/01/27 11:18:57;;;;;;;13.35;6.05;;;15.20;99.90;;;;;;5088414;28;20419;-32
2024/01/27 11:21:23;;;;;;;12.07;6.32;;;15.60;99.90;;;;;;5095633;28;20043;-32
2024/01/27 11:23:49;;;;;;;11.85;6.25;;;15.70;99.90;;;;;;5091405;28;20051;-32
2024/01/27 11:26:20;;;;;;;16.55;6.30;;;15.70;99.90;;;;;;5048625;28;20399;-33
2024/01/27 11:28:46;;;;;;;14.50;6.85;;;15.40;99.90;;;;;;5081309;28;20089;-34
2024/01/27 11:31:12;;;;;;;14.05;6.20;;;15.00;99.90;;;;;;5080523;28;20436;-32
2024/01/27 11:33:45;;;;;;;12.60;5.68;;;14.40;99.90;;;;;;5090188;28;20483;-32
2024/01/27 11:36:22;;;;;;;14.53;6.07;;;14.20;99.90;;;;;;5071990;28;20047;-32
2024/01/27 11:38:48;;;;;;;14.27;5.82;;;14.00;99.90;;;;;;5095534;28;20355;-33
2024/01/27 11:41:27;;;;;;;13.00;5.65;;;14.10;99.90;;;;;;5095186;28;20080;-33
2024/01/27 11:43:54;;;;;;;11.40;5.22;;;13.80;99.90;;;;;;5093108;28;20065;-33
2024/01/27 11:46:20;;;;;;;11.45;5.53;;;14.00;99.90;;;;;;5083215;28;20368;-33
2024/01/27 11:48:46;;;;;;;10.50;4.97;;;14.10;99.90;;;;;;5088333;28;20402;-33
2024/01/27 11:51:12;;;;;;;14.95;5.82;;;14.20;99.90;;;;;;5088395;28;20115;-33
2024/01/27 11:53:38;;;;;;;12.43;4.97;;;14.40;99.90;;;;;;5084478;28;20072;-33
2024/01/27 11:56:05;;;;;;;14.13;5.50;;;14.50;99.90;;;;;;5092057;28;20047;-35
2024/01/27 11:58:31;;;;;;;15.20;5.47;;;14.50;99.90;;;;;;5091195;28;20311;-33
2024/01/27 12:00:58;;;;;;;11.65;5.18;;;14.30;99.90;;;;;;5101106;28;20050;-36
2024/01/27 12:03:27;;;;;;;9.88;5.28;;;14.30;99.90;;;;;;5102619;28;20483;-35
2024/01/27 12:05:53;;;;;;;11.57;6.25;;;14.10;99.90;;;;;;5099758;28;20071;-36
2024/01/27 12:08:19;;;;;;;12.32;4.97;;;14.20;99.90;;;;;;5093624;28;20121;-37
2024/01/27 12:10:44;;;;;;;12.68;5.28;;;14.30;99.90;;;;;;5092327;28;20479;-33
2024/01/27 12:13:10;;;;;;;11.82;4.90;;;14.50;99.90;;;;;;5092189;28;20173;-33
2024/01/27 12:15:36;;;;;;;12.40;4.78;;;14.50;99.90;;;;;;5090118;28;20040;-34
2024/01/27 12:18:04;;;;;;;12.43;4.80;;;14.60;99.90;;;;;;5087135;28;20456;-35
2024/01/27 12:20:30;;;;;;;11.85;4.53;;;14.50;99.90;;;;;;5086892;28;20047;-34
2024/01/27 12:23:06;;;;;;;14.65;4.57;;;14.50;99.90;;;;;;5093043;28;20036;-34
2024/01/27 12:25:32;;;;;;;10.98;4.43;;;14.50;99.90;;;;;;5094051;28;20487;-33
2024/01/27 12:28:05;;;;;;;13.48;4.47;;;14.80;99.90;;;;;;5080187;28;20036;-34
2024/01/27 12:30:34;;;;;;;10.93;4.97;;;14.80;99.90;;;;;;5086048;28;20040;-33
2024/01/27 12:33:09;;;;;;;19.60;8.88;;;15.20;99.90;;;;;;5089785;28;20342;-33
2024/01/27 12:35:35;;;;;;;24.48;14.23;;;15.50;99.90;;;;;;5089650;28;20050;-33